createdAt,value
2022-08-26T00:02:20.568Z,98237.50
2022-08-26T00:06:23.682Z,98242.53
2022-08-26T00:10:26.174Z,98240.19
2022-08-26T00:14:30.884Z,98236.66
2022-08-26T00:18:33.217Z,98246.16
2022-08-26T00:22:41.544Z,98242.66
2022-08-26T00:26:44.648Z,98243.78
2022-08-26T00:30:49.376Z,98236.66
2022-08-26T00:34:54.583Z,98232.84
2022-08-26T00:38:58.242Z,98244.47
2022-08-26T00:43:04.565Z,98235.97
2022-08-26T00:47:31.155Z,98231.94
2022-08-26T00:51:41.430Z,98227.88
2022-08-26T00:55:45.107Z,98232.31
2022-08-26T00:59:51.423Z,98227.91
2022-08-26T01:03:55.724Z,98229.03
2022-08-26T01:07:58.665Z,98229.53
2022-08-26T01:12:03.219Z,98223.72
2022-08-26T01:16:12.967Z,98226.63
2022-08-26T01:20:31.468Z,98222.47
2022-08-26T01:24:34.799Z,98216.13
2022-08-26T01:28:40.707Z,98215.34
2022-08-26T01:32:44.728Z,98218.03
2022-08-26T01:36:52.078Z,98216.19
2022-08-26T01:40:55.122Z,98223.50
2022-08-26T01:45:14.536Z,98225.81
2022-08-26T01:49:20.266Z,98227.38
2022-08-26T01:53:24.429Z,98223.44
2022-08-26T01:57:27.468Z,98221.66
2022-08-26T02:01:31.290Z,98223.31
2022-08-26T02:05:34.683Z,98221.72
2022-08-26T02:09:44.516Z,98216.81
2022-08-26T02:14:28.184Z,98211.09
2022-08-26T02:18:33.612Z,98219.38
2022-08-26T02:22:36.010Z,98215.25
2022-08-26T02:26:39.428Z,98225.13
2022-08-26T02:30:43.021Z,98217.19
2022-08-26T02:34:46.594Z,98219.09
2022-08-26T02:38:49.848Z,98205.13
2022-08-26T02:43:05.829Z,98211.44
2022-08-26T02:47:14.071Z,98204.22
2022-08-26T02:51:16.877Z,98202.97
2022-08-26T02:55:20.380Z,98208.53
2022-08-26T02:59:24.265Z,98202.97
2022-08-26T03:03:27.777Z,98201.53
2022-08-26T03:07:30.531Z,98195.69
2022-08-26T03:11:33.823Z,98193.13
2022-08-26T03:15:36.242Z,98194.25
2022-08-26T03:19:39.650Z,98192.84
2022-08-26T03:23:45.183Z,98193.31
2022-08-26T03:27:48.880Z,98186.66
2022-08-26T03:31:51.315Z,98192.53
2022-08-26T03:35:55.244Z,98189.50
2022-08-26T03:39:57.690Z,98193.13
2022-08-26T03:44:01.861Z,98194.91
2022-08-26T03:48:05.337Z,98194.13
2022-08-26T03:52:07.668Z,98182.25
2022-08-26T03:56:10.812Z,98185.09
2022-08-26T04:00:18.381Z,98190.63
2022-08-26T04:04:22.821Z,98189.38
2022-08-26T04:08:28.017Z,98193.28
2022-08-26T04:12:30.509Z,98194.09
2022-08-26T04:16:33.217Z,98174.94
2022-08-26T04:20:36.301Z,98181.44
2022-08-26T04:24:40.196Z,98183.94
2022-08-26T04:28:43.094Z,98182.25
2022-08-26T04:32:45.976Z,98183.31
2022-08-26T04:36:49.648Z,98182.97
2022-08-26T04:40:52.435Z,98183.97
2022-08-26T04:44:55.856Z,98190.41
2022-08-26T04:48:59.083Z,98187.75
2022-08-26T04:53:01.572Z,98193.94
2022-08-26T04:57:03.958Z,98195.50
2022-08-26T05:01:07.009Z,98193.91
2022-08-26T05:05:10.449Z,98198.22
2022-08-26T05:09:15.332Z,98198.69
2022-08-26T05:13:29.415Z,98194.91
2022-08-26T05:17:34.558Z,98192.66
2022-08-26T05:21:36.914Z,98191.06
2022-08-26T05:25:42.103Z,98189.72
2022-08-26T05:29:45.041Z,98183.81
2022-08-26T05:33:47.361Z,98180.97
2022-08-26T05:37:49.695Z,98176.94
2022-08-26T05:41:51.825Z,98183.25
2022-08-26T05:45:55.005Z,98186.97
2022-08-26T05:49:57.221Z,98196.41
2022-08-26T05:54:01.455Z,98192.88
2022-08-26T05:58:06.125Z,98183.59
2022-08-26T06:02:09.150Z,98188.25
2022-08-26T06:06:20.037Z,98190.56
2022-08-26T06:10:32.115Z,98187.91
2022-08-26T06:14:36.133Z,98195.69
2022-08-26T06:18:40.251Z,98187.22
2022-08-26T06:23:01.132Z,98184.66
2022-08-26T06:27:09.595Z,98177.63
2022-08-26T06:31:15.698Z,98189.53
2022-08-26T06:35:18.344Z,98180.44
2022-08-26T06:39:21.590Z,98193.72
2022-08-26T06:43:27.190Z,98183.91
2022-08-26T06:47:29.495Z,98190.69
2022-08-26T06:51:34.940Z,98192.25
2022-08-26T06:55:41.814Z,98187.69
2022-08-26T06:59:44.374Z,98194.63
2022-08-26T07:03:47.898Z,98182.78
2022-08-26T07:07:50.420Z,98188.34
2022-08-26T07:11:53.271Z,98187.31
2022-08-26T07:15:58.170Z,98188.31
2022-08-26T07:20:08.225Z,98186.13
2022-08-26T07:24:11.386Z,98177.38
2022-08-26T07:28:13.586Z,98186.69
2022-08-26T07:32:17.266Z,98196.19
2022-08-26T07:36:22.296Z,98194.41
2022-08-26T07:40:24.736Z,98187.91
2022-08-26T07:44:27.401Z,98190.56
2022-08-26T07:48:29.905Z,98189.31
2022-08-26T07:52:32.760Z,98197.03
2022-08-26T07:56:35.959Z,98190.34
2022-08-26T08:00:38.877Z,98199.72
2022-08-26T08:04:41.299Z,98199.91
2022-08-26T08:08:44.681Z,98193.25
2022-08-26T08:12:49.686Z,98196.69
2022-08-26T08:16:54.948Z,98200.31
2022-08-26T08:21:21.102Z,98198.72
2022-08-26T08:25:24.699Z,98203.66
2022-08-26T08:29:29.915Z,98206.13
2022-08-26T08:33:34.562Z,98203.06
2022-08-26T08:37:37.208Z,98209.03
2022-08-26T08:42:09.011Z,98208.03
2022-08-26T08:46:16.720Z,98201.16
2022-08-26T08:50:24.700Z,98206.81
2022-08-26T08:54:29.170Z,98192.97
2022-08-26T08:58:46.091Z,98205.22
2022-08-26T09:02:59.834Z,98194.41
2022-08-26T09:07:06.740Z,98198.50
2022-08-26T09:11:10.943Z,98186.66
2022-08-26T09:16:15.500Z,98183.66
2022-08-26T09:20:57.183Z,98179.09
2022-08-26T09:24:59.950Z,98171.81
2022-08-26T09:29:09.169Z,98168.38
2022-08-26T09:33:17.476Z,98162.16
2022-08-26T09:37:33.026Z,98153.25
2022-08-26T09:41:37.374Z,98152.13
2022-08-26T09:45:49.343Z,98146.75
2022-08-26T09:50:31.582Z,98149.91
2022-08-26T09:54:33.977Z,98135.81
2022-08-26T09:58:39.698Z,98139.78
2022-08-26T10:02:47.573Z,98132.28
2022-08-26T10:06:57.174Z,98127.25
2022-08-26T10:11:04.829Z,98126.88
2022-08-26T10:15:12.150Z,98114.34
2022-08-26T10:19:21.049Z,98119.47
2022-08-26T10:23:27.526Z,98116.69
2022-08-26T10:28:06.902Z,98117.44
2022-08-26T10:32:22.558Z,98110.44
2022-08-26T10:37:13.560Z,98097.84
2022-08-26T10:41:16.930Z,98096.19
2022-08-26T10:45:25.772Z,98100.22
2022-08-26T10:49:28.276Z,98086.25
2022-08-26T10:54:04.577Z,98069.84
2022-08-26T10:58:51.798Z,98067.63
2022-08-26T11:03:03.474Z,98071.91
2022-08-26T11:07:31.736Z,98072.94
2022-08-26T11:11:40.053Z,98074.56
2022-08-26T11:15:42.475Z,98064.94
2022-08-26T11:20:03.296Z,98067.31
2022-08-26T11:24:30.324Z,98061.66
2022-08-26T11:28:48.904Z,98052.94
2022-08-26T11:32:57.361Z,98046.13
2022-08-26T11:37:01.539Z,98040.16
2022-08-26T11:41:10.266Z,98055.34
2022-08-26T11:45:31.411Z,98052.88
2022-08-26T11:49:34.925Z,98039.16
2022-08-26T11:53:40.264Z,98032.34
2022-08-26T11:57:47.250Z,98027.59
2022-08-26T12:01:51.936Z,98025.13
2022-08-26T12:05:54.607Z,98027.34
2022-08-26T12:09:58.482Z,98026.59
2022-08-26T12:14:16.856Z,98023.34
2022-08-26T12:18:29.173Z,98019.25
2022-08-26T12:22:36.197Z,98026.00
2022-08-26T12:26:41.927Z,98022.47
2022-08-26T12:30:59.689Z,98027.88
2022-08-26T12:39:12.302Z,98028.09
2022-08-26T12:43:39.600Z,98035.25
2022-08-26T12:47:44.366Z,98018.44
2022-08-26T12:51:50.365Z,98010.59
2022-08-26T12:55:58.838Z,98011.38
2022-08-26T13:00:40.320Z,98019.97
2022-08-26T13:04:44.200Z,98016.06
2022-08-26T13:08:49.314Z,98018.47
2022-08-26T13:12:51.377Z,97993.75
2022-08-26T13:16:53.533Z,97992.59
2022-08-26T13:20:57.361Z,97995.72
2022-08-26T13:24:59.451Z,98003.53
2022-08-26T13:29:06.270Z,97997.78
2022-08-26T13:33:14.629Z,97994.66
2022-08-26T13:37:22.511Z,97979.31
2022-08-26T13:41:36.782Z,97963.94
2022-08-26T13:45:39.049Z,97958.59
2022-08-26T13:49:41.101Z,97959.09
2022-08-26T13:53:43.318Z,97942.91
2022-08-26T13:57:45.549Z,97946.66
2022-08-26T14:01:48.101Z,97950.38
2022-08-26T14:05:51.635Z,97943.47
2022-08-26T14:09:53.867Z,97947.09
2022-08-26T14:13:56.727Z,97945.41
2022-08-26T14:18:03.675Z,97934.72
2022-08-26T14:22:05.895Z,97942.41
2022-08-26T14:26:14.375Z,97939.47
2022-08-26T14:30:32.099Z,97930.81
2022-08-26T14:34:34.421Z,97935.59
2022-08-26T14:38:36.515Z,97935.06
2022-08-26T14:42:38.705Z,97925.66
2022-08-26T14:46:48.663Z,97928.75
2022-08-26T14:50:50.916Z,97929.94
2022-08-26T14:54:55.501Z,97919.19
2022-08-26T14:58:57.527Z,97914.41
2022-08-26T15:02:59.919Z,97910.75
2022-08-26T15:07:03.837Z,97902.25
2022-08-26T15:11:06.346Z,97890.81
2022-08-26T15:15:10.818Z,97893.31
2022-08-26T15:19:14.046Z,97895.22
2022-08-26T15:23:16.200Z,97895.81
2022-08-26T15:27:19.827Z,97889.06
2022-08-26T15:31:31.408Z,97881.06
2022-08-26T15:35:35.701Z,97876.88
2022-08-26T15:39:42.595Z,97867.31
2022-08-26T15:43:44.704Z,97869.03
2022-08-26T15:48:11.057Z,97879.41
2022-08-26T15:52:09.692Z,97905.34
2022-08-26T15:56:11.815Z,97902.66
2022-08-26T16:00:14.562Z,97898.38
2022-08-26T16:04:17.699Z,97904.56
2022-08-26T16:08:20.223Z,97908.84
2022-08-26T16:12:22.626Z,97904.09
2022-08-26T16:16:24.937Z,97914.59
2022-08-26T16:20:27.207Z,97908.31
2022-08-26T16:24:30.670Z,97903.97
2022-08-26T16:28:32.904Z,97902.38
2022-08-26T16:32:35.005Z,97905.13
2022-08-26T16:36:38.904Z,97919.28
2022-08-26T16:40:41.321Z,97926.38
2022-08-26T16:44:44.826Z,97927.53
2022-08-26T16:48:46.851Z,97929.53
2022-08-26T16:52:55.749Z,97928.19
2022-08-26T16:56:58.015Z,97927.41
2022-08-26T17:01:01.710Z,97930.16
2022-08-26T17:05:06.385Z,97939.91
2022-08-26T17:09:09.219Z,97933.78
2022-08-26T17:13:20.901Z,97936.13
2022-08-26T17:17:37.420Z,97935.16
2022-08-26T17:21:39.998Z,97927.41
2022-08-26T17:25:42.652Z,97921.19
2022-08-26T17:29:50.715Z,97919.63
2022-08-26T17:33:53.294Z,97920.16
2022-08-26T17:37:56.792Z,97915.69
2022-08-26T17:41:59.159Z,97917.22
2022-08-26T17:46:06.809Z,97928.25
2022-08-26T17:50:13.207Z,97921.69
2022-08-26T17:54:15.769Z,97927.69
2022-08-26T17:58:23.237Z,97926.19
2022-08-26T18:02:25.980Z,97933.66
2022-08-26T18:06:30.560Z,97928.41
2022-08-26T18:10:33.291Z,97930.69
2022-08-26T18:14:36.263Z,97929.13
2022-08-26T18:18:39.311Z,97924.75
2022-08-26T18:22:42.853Z,97916.47
2022-08-26T18:26:48.889Z,97912.78
2022-08-26T18:30:51.755Z,97898.94
2022-08-26T18:34:53.903Z,97898.84
2022-08-26T18:38:57.090Z,97909.13
2022-08-26T18:42:59.357Z,97916.56
2022-08-26T18:47:01.887Z,97909.47
2022-08-26T18:51:04.877Z,97933.69
2022-08-26T18:55:07.624Z,97928.03
2022-08-26T18:59:10.433Z,97926.16
2022-08-26T19:03:15.626Z,97937.56
2022-08-26T19:07:21.662Z,97940.44
2022-08-26T19:11:32.333Z,97944.34
2022-08-26T19:15:41.830Z,97951.31
2022-08-26T19:19:44.224Z,97948.88
2022-08-26T19:23:50.158Z,97958.34
2022-08-26T19:27:52.247Z,97968.53
2022-08-26T19:31:54.709Z,97973.22
2022-08-26T19:35:57.007Z,97975.94
2022-08-26T19:39:59.297Z,97979.34
2022-08-26T19:44:04.119Z,97986.63
2022-08-26T19:48:06.774Z,97992.69
2022-08-26T19:52:11.156Z,97990.75
2022-08-26T19:56:14.218Z,97998.44
2022-08-26T20:00:19.054Z,97996.16
2022-08-26T20:04:21.153Z,98004.75
2022-08-26T20:08:23.211Z,98003.81
2022-08-26T20:12:27.659Z,98010.91
2022-08-26T20:16:29.936Z,98011.69
2022-08-26T20:20:50.743Z,98012.81
2022-08-26T20:24:54.062Z,98015.41
2022-08-26T20:28:57.207Z,98004.69
2022-08-26T20:32:59.405Z,98012.78
2022-08-26T20:37:02.337Z,98027.00
2022-08-26T20:41:06.021Z,98016.44
2022-08-26T20:45:08.994Z,98010.41
2022-08-26T20:49:12.696Z,98012.59
2022-08-26T20:53:15.236Z,98003.59
2022-08-26T20:57:17.524Z,97995.72
2022-08-26T21:01:28.195Z,97997.81
2022-08-26T21:05:30.431Z,98006.53
2022-08-26T21:09:32.586Z,98009.41
2022-08-26T21:13:48.382Z,98016.13
2022-08-26T21:17:57.827Z,98028.78
2022-08-26T21:22:00.014Z,98024.81
2022-08-26T21:26:11.647Z,98023.34
2022-08-26T21:30:16.015Z,98018.25
2022-08-26T21:34:19.895Z,98018.91
2022-08-26T21:38:22.369Z,98023.25
2022-08-26T21:42:26.681Z,98020.13
2022-08-26T21:46:30.411Z,98023.31
2022-08-26T21:50:32.536Z,98028.19
2022-08-26T21:54:34.759Z,98023.84
2022-08-26T21:58:36.952Z,98032.34
2022-08-26T22:02:39.329Z,98024.97
2022-08-26T22:06:47.896Z,98027.59
2022-08-26T22:10:53.046Z,98029.66
2022-08-26T22:14:55.282Z,98031.75
2022-08-26T22:18:57.417Z,98028.91
2022-08-26T22:22:59.595Z,98022.53
2022-08-26T22:27:01.762Z,98025.66
2022-08-26T22:31:03.970Z,98025.53
2022-08-26T22:35:11.389Z,98022.25
2022-08-26T22:39:28.981Z,98022.38
2022-08-26T22:43:31.597Z,98020.44
2022-08-26T22:47:34.244Z,98025.06
2022-08-26T22:51:39.321Z,98031.06
2022-08-26T22:55:43.270Z,98034.19
2022-08-26T22:59:45.442Z,98031.84
2022-08-26T23:03:47.756Z,98032.88
2022-08-26T23:07:50.440Z,98029.03
2022-08-26T23:11:55.941Z,98031.16
2022-08-26T23:16:03.403Z,98037.38
2022-08-26T23:20:10.046Z,98029.41
2022-08-26T23:24:12.894Z,98036.69
2022-08-26T23:28:14.963Z,98038.50
2022-08-26T23:32:17.182Z,98036.22
2022-08-26T23:36:22.775Z,98033.97
2022-08-26T23:40:34.797Z,98031.84
2022-08-26T23:44:37.174Z,98040.06
2022-08-26T23:48:39.378Z,98036.47
2022-08-26T23:53:00.169Z,98038.03
2022-08-26T23:57:02.204Z,98029.50
